sensor_id;sensor_type;location;lat;lon;timestamp;temperature;humidity
32640;DHT22;19049;52.524;11.468;2022-09-09T00:00:26;14.60;98.00
32640;DHT22;19049;52.524;11.468;2022-09-09T00:08:27;14.50;97.80
32640;DHT22;19049;52.524;11.468;2022-09-09T00:11:03;14.50;97.70
32640;DHT22;19049;52.524;11.468;2022-09-09T00:13:37;14.50;97.70
32640;DHT22;19049;52.524;11.468;2022-09-09T00:16:10;14.50;97.60
32640;DHT22;19049;52.524;11.468;2022-09-09T00:19:02;14.40;97.50
32640;DHT22;19049;52.524;11.468;2022-09-09T00:21:38;14.40;97.50
32640;DHT22;19049;52.524;11.468;2022-09-09T00:27:31;14.30;97.50
32640;DHT22;19049;52.524;11.468;2022-09-09T00:30:31;14.30;97.20
32640;DHT22;19049;52.524;11.468;2022-09-09T00:33:03;14.20;97.10
32640;DHT22;19049;52.524;11.468;2022-09-09T00:35:40;14.10;98.10
32640;DHT22;19049;52.524;11.468;2022-09-09T00:38:40;14.00;96.90
32640;DHT22;19049;52.524;11.468;2022-09-09T00:47:52;13.80;97.60
32640;DHT22;19049;52.524;11.468;2022-09-09T00:55:54;13.80;97.90
32640;DHT22;19049;52.524;11.468;2022-09-09T00:58:24;13.80;98.00
32640;DHT22;19049;52.524;11.468;2022-09-09T01:00:57;13.80;98.00
32640;DHT22;19049;52.524;11.468;2022-09-09T01:03:46;13.80;97.90
32640;DHT22;19049;52.524;11.468;2022-09-09T01:06:24;13.80;97.90
32640;DHT22;19049;52.524;11.468;2022-09-09T01:17:19;13.70;97.70
32640;DHT22;19049;52.524;11.468;2022-09-09T01:20:20;13.70;97.60
32640;DHT22;19049;52.524;11.468;2022-09-09T01:23:08;13.60;97.40
32640;DHT22;19049;52.524;11.468;2022-09-09T01:28:36;13.50;97.40
32640;DHT22;19049;52.524;11.468;2022-09-09T01:31:04;13.50;97.60
32640;DHT22;19049;52.524;11.468;2022-09-09T01:33:33;13.40;97.70
32640;DHT22;19049;52.524;11.468;2022-09-09T01:36:06;13.40;97.80
32640;DHT22;19049;52.524;11.468;2022-09-09T01:38:34;13.40;97.90
32640;DHT22;19049;52.524;11.468;2022-09-09T01:41:04;13.40;98.00
32640;DHT22;19049;52.524;11.468;2022-09-09T01:43:32;13.40;98.00
32640;DHT22;19049;52.524;11.468;2022-09-09T01:46:03;13.40;98.00
32640;DHT22;19049;52.524;11.468;2022-09-09T01:48:31;13.40;97.90
32640;DHT22;19049;52.524;11.468;2022-09-09T01:50:57;13.40;97.90
32640;DHT22;19049;52.524;11.468;2022-09-09T01:53:25;13.40;97.90
32640;DHT22;19049;52.524;11.468;2022-09-09T01:56:50;13.40;98.00
32640;DHT22;19049;52.524;11.468;2022-09-09T02:04:41;13.50;98.20
32640;DHT22;19049;52.524;11.468;2022-09-09T02:10:40;13.50;98.30
32640;DHT22;19049;52.524;11.468;2022-09-09T02:12:51;13.50;98.40
32640;DHT22;19049;52.524;11.468;2022-09-09T02:15:30;13.60;98.50
32640;DHT22;19049;52.524;11.468;2022-09-09T02:18:10;13.60;98.50
32640;DHT22;19049;52.524;11.468;2022-09-09T02:20:39;13.60;98.50
32640;DHT22;19049;52.524;11.468;2022-09-09T02:23:07;13.70;98.70
32640;DHT22;19049;52.524;11.468;2022-09-09T02:25:36;13.70;98.70
32640;DHT22;19049;52.524;11.468;2022-09-09T02:28:05;13.80;98.60
32640;DHT22;19049;52.524;11.468;2022-09-09T02:30:56;13.80;98.50
32640;DHT22;19049;52.524;11.468;2022-09-09T02:33:30;13.80;98.30
32640;DHT22;19049;52.524;11.468;2022-09-09T02:36:02;13.80;98.20
32640;DHT22;19049;52.524;11.468;2022-09-09T02:38:45;13.80;98.20
32640;DHT22;19049;52.524;11.468;2022-09-09T02:41:13;13.80;98.20
32640;DHT22;19049;52.524;11.468;2022-09-09T02:43:39;13.80;98.10
32640;DHT22;19049;52.524;11.468;2022-09-09T02:51:48;13.70;98.30
32640;DHT22;19049;52.524;11.468;2022-09-09T02:54:31;13.70;98.30
32640;DHT22;19049;52.524;11.468;2022-09-09T02:57:25;13.70;98.30
32640;DHT22;19049;52.524;11.468;2022-09-09T02:59:57;13.70;98.30
32640;DHT22;19049;52.524;11.468;2022-09-09T03:02:24;13.70;98.20
32640;DHT22;19049;52.524;11.468;2022-09-09T03:04:50;13.70;98.10
32640;DHT22;19049;52.524;11.468;2022-09-09T03:07:19;13.70;98.10
32640;DHT22;19049;52.524;11.468;2022-09-09T03:09:47;13.70;98.10
32640;DHT22;19049;52.524;11.468;2022-09-09T03:12:17;13.70;98.10
32640;DHT22;19049;52.524;11.468;2022-09-09T03:14:45;13.70;98.10
32640;DHT22;19049;52.524;11.468;2022-09-09T03:17:12;13.60;98.00
32640;DHT22;19049;52.524;11.468;2022-09-09T03:19:38;13.60;97.90
32640;DHT22;19049;52.524;11.468;2022-09-09T03:22:07;13.60;97.70
32640;DHT22;19049;52.524;11.468;2022-09-09T03:24:36;13.60;97.70
32640;DHT22;19049;52.524;11.468;2022-09-09T03:27:24;13.50;97.70
32640;DHT22;19049;52.524;11.468;2022-09-09T03:33:24;13.40;97.70
32640;DHT22;19049;52.524;11.468;2022-09-09T03:39:07;13.30;97.50
32640;DHT22;19049;52.524;11.468;2022-09-09T03:41:40;13.20;97.60
32640;DHT22;19049;52.524;11.468;2022-09-09T03:44:24;13.20;97.70
32640;DHT22;19049;52.524;11.468;2022-09-09T03:46:49;13.20;97.80
32640;DHT22;19049;52.524;11.468;2022-09-09T03:49:17;13.20;97.70
32640;DHT22;19049;52.524;11.468;2022-09-09T03:51:43;13.10;97.50
32640;DHT22;19049;52.524;11.468;2022-09-09T03:54:08;13.10;97.40
32640;DHT22;19049;52.524;11.468;2022-09-09T03:56:36;13.00;97.20
32640;DHT22;19049;52.524;11.468;2022-09-09T03:59:02;12.90;97.10
32640;DHT22;19049;52.524;11.468;2022-09-09T04:01:30;12.90;97.10
32640;DHT22;19049;52.524;11.468;2022-09-09T04:03:56;12.80;97.10
32640;DHT22;19049;52.524;11.468;2022-09-09T04:06:24;12.70;97.10
32640;DHT22;19049;52.524;11.468;2022-09-09T04:08:50;12.70;97.10
32640;DHT22;19049;52.524;11.468;2022-09-09T04:11:18;12.60;97.00
32640;DHT22;19049;52.524;11.468;2022-09-09T04:13:43;12.50;97.00
32640;DHT22;19049;52.524;11.468;2022-09-09T04:16:11;12.50;97.10
32640;DHT22;19049;52.524;11.468;2022-09-09T04:18:37;12.40;97.40
32640;DHT22;19049;52.524;11.468;2022-09-09T04:21:05;12.40;97.70
32640;DHT22;19049;52.524;11.468;2022-09-09T04:23:32;12.40;97.90
32640;DHT22;19049;52.524;11.468;2022-09-09T04:26:00;12.40;98.00
32640;DHT22;19049;52.524;11.468;2022-09-09T04:28:37;12.40;98.10
32640;DHT22;19049;52.524;11.468;2022-09-09T04:31:12;12.50;98.10
32640;DHT22;19049;52.524;11.468;2022-09-09T04:33:40;12.50;98.10
32640;DHT22;19049;52.524;11.468;2022-09-09T04:36:06;12.50;98.00
32640;DHT22;19049;52.524;11.468;2022-09-09T04:38:31;12.50;98.00
32640;DHT22;19049;52.524;11.468;2022-09-09T04:40:57;12.50;98.00
32640;DHT22;19049;52.524;11.468;2022-09-09T04:43:23;12.50;98.00
32640;DHT22;19049;52.524;11.468;2022-09-09T04:45:51;12.50;98.00
32640;DHT22;19049;52.524;11.468;2022-09-09T04:48:17;12.50;98.10
32640;DHT22;19049;52.524;11.468;2022-09-09T04:50:59;12.50;98.30
32640;DHT22;19049;52.524;11.468;2022-09-09T04:53:25;12.60;98.50
32640;DHT22;19049;52.524;11.468;2022-09-09T04:56:05;12.60;98.50
32640;DHT22;19049;52.524;11.468;2022-09-09T04:58:32;12.70;98.50
32640;DHT22;19049;52.524;11.468;2022-09-09T05:01:09;12.70;98.50
32640;DHT22;19049;52.524;11.468;2022-09-09T05:03:38;12.70;98.50
32640;DHT22;19049;52.524;11.468;2022-09-09T05:06:12;12.80;98.70
32640;DHT22;19049;52.524;11.468;2022-09-09T05:29:36;13.70;99.70
32640;DHT22;19049;52.524;11.468;2022-09-09T05:32:13;13.80;99.50
32640;DHT22;19049;52.524;11.468;2022-09-09T05:34:48;13.90;99.40
32640;DHT22;19049;52.524;11.468;2022-09-09T05:37:30;14.00;99.30
32640;DHT22;19049;52.524;11.468;2022-09-09T05:40:19;14.00;99.30
32640;DHT22;19049;52.524;11.468;2022-09-09T05:42:47;14.10;99.40
32640;DHT22;19049;52.524;11.468;2022-09-09T05:45:20;14.20;99.40
32640;DHT22;19049;52.524;11.468;2022-09-09T05:47:51;14.20;99.40
32640;DHT22;19049;52.524;11.468;2022-09-09T05:50:18;14.30;99.50
32640;DHT22;19049;52.524;11.468;2022-09-09T05:52:44;14.30;99.50
32640;DHT22;19049;52.524;11.468;2022-09-09T05:55:10;14.50;99.90
32640;DHT22;19049;52.524;11.468;2022-09-09T05:57:37;14.50;99.60
32640;DHT22;19049;52.524;11.468;2022-09-09T06:00:04;14.70;99.90
32640;DHT22;19049;52.524;11.468;2022-09-09T06:02:30;14.80;99.90
32640;DHT22;19049;52.524;11.468;2022-09-09T06:04:58;14.80;99.90
32640;DHT22;19049;52.524;11.468;2022-09-09T06:07:34;14.80;99.80
32640;DHT22;19049;52.524;11.468;2022-09-09T06:11:00;14.90;99.90
32640;DHT22;19049;52.524;11.468;2022-09-09T06:13:35;15.00;99.80
32640;DHT22;19049;52.524;11.468;2022-09-09T06:16:13;15.10;99.90
32640;DHT22;19049;52.524;11.468;2022-09-09T06:18:42;15.20;99.90
32640;DHT22;19049;52.524;11.468;2022-09-09T06:21:34;15.30;99.90
32640;DHT22;19049;52.524;11.468;2022-09-09T06:24:02;15.50;99.90
32640;DHT22;19049;52.524;11.468;2022-09-09T06:26:36;15.60;99.90
32640;DHT22;19049;52.524;11.468;2022-09-09T06:29:03;15.80;99.90
32640;DHT22;19049;52.524;11.468;2022-09-09T06:31:31;16.00;99.90
32640;DHT22;19049;52.524;11.468;2022-09-09T06:33:58;16.20;99.90
32640;DHT22;19049;52.524;11.468;2022-09-09T06:36:33;16.30;99.90
32640;DHT22;19049;52.524;11.468;2022-09-09T06:38:59;16.40;99.90
32640;DHT22;19049;52.524;11.468;2022-09-09T06:41:29;16.50;99.90
32640;DHT22;19049;52.524;11.468;2022-09-09T06:43:58;16.60;99.90
32640;DHT22;19049;52.524;11.468;2022-09-09T06:46:31;16.70;99.90
32640;DHT22;19049;52.524;11.468;2022-09-09T06:48:59;16.80;99.60
32640;DHT22;19049;52.524;11.468;2022-09-09T06:51:29;16.80;99.40
32640;DHT22;19049;52.524;11.468;2022-09-09T06:53:57;16.80;99.20
32640;DHT22;19049;52.524;11.468;2022-09-09T06:56:27;16.90;99.30
32640;DHT22;19049;52.524;11.468;2022-09-09T06:58:54;16.90;99.30
32640;DHT22;19049;52.524;11.468;2022-09-09T07:01:28;16.90;99.10
32640;DHT22;19049;52.524;11.468;2022-09-09T07:03:56;17.00;99.40
32640;DHT22;19049;52.524;11.468;2022-09-09T07:06:42;17.10;99.60
32640;DHT22;19049;52.524;11.468;2022-09-09T07:09:11;17.10;99.60
32640;DHT22;19049;52.524;11.468;2022-09-09T07:11:50;17.20;99.70
32640;DHT22;19049;52.524;11.468;2022-09-09T07:14:21;17.30;99.60
32640;DHT22;19049;52.524;11.468;2022-09-09T07:16:47;17.40;99.50
32640;DHT22;19049;52.524;11.468;2022-09-09T07:19:14;17.50;99.60
32640;DHT22;19049;52.524;11.468;2022-09-09T07:21:42;17.60;99.70
32640;DHT22;19049;52.524;11.468;2022-09-09T07:24:09;17.80;99.90
32640;DHT22;19049;52.524;11.468;2022-09-09T07:26:40;18.00;99.90
32640;DHT22;19049;52.524;11.468;2022-09-09T07:29:06;18.40;99.90
32640;DHT22;19049;52.524;11.468;2022-09-09T07:31:34;18.80;99.90
32640;DHT22;19049;52.524;11.468;2022-09-09T07:36:38;19.70;99.90
32640;DHT22;19049;52.524;11.468;2022-09-09T07:39:13;20.20;99.70
32640;DHT22;19049;52.524;11.468;2022-09-09T07:41:49;20.60;99.00
32640;DHT22;19049;52.524;11.468;2022-09-09T07:44:27;21.00;98.10
32640;DHT22;19049;52.524;11.468;2022-09-09T07:46:53;21.30;97.60
32640;DHT22;19049;52.524;11.468;2022-09-09T07:49:21;21.60;97.70
32640;DHT22;19049;52.524;11.468;2022-09-09T07:51:48;21.80;97.90
32640;DHT22;19049;52.524;11.468;2022-09-09T07:54:16;22.20;97.50
32640;DHT22;19049;52.524;11.468;2022-09-09T07:56:45;22.50;96.80
32640;DHT22;19049;52.524;11.468;2022-09-09T07:59:11;22.70;95.40
32640;DHT22;19049;52.524;11.468;2022-09-09T08:01:42;22.90;95.20
32640;DHT22;19049;52.524;11.468;2022-09-09T08:04:14;23.00;94.00
32640;DHT22;19049;52.524;11.468;2022-09-09T08:06:42;23.10;94.20
32640;DHT22;19049;52.524;11.468;2022-09-09T08:09:09;23.10;94.70
32640;DHT22;19049;52.524;11.468;2022-09-09T08:11:35;23.20;94.80
32640;DHT22;19049;52.524;11.468;2022-09-09T08:14:02;23.30;93.40
32640;DHT22;19049;52.524;11.468;2022-09-09T08:16:33;23.50;93.70
32640;DHT22;19049;52.524;11.468;2022-09-09T08:19:02;23.60;92.50
32640;DHT22;19049;52.524;11.468;2022-09-09T08:21:31;23.60;92.30
32640;DHT22;19049;52.524;11.468;2022-09-09T08:24:02;23.50;91.90
32640;DHT22;19049;52.524;11.468;2022-09-09T08:26:35;23.40;92.40
32640;DHT22;19049;52.524;11.468;2022-09-09T08:29:03;23.30;91.90
32640;DHT22;19049;52.524;11.468;2022-09-09T08:31:34;23.20;92.10
32640;DHT22;19049;52.524;11.468;2022-09-09T08:34:03;23.10;92.00
32640;DHT22;19049;52.524;11.468;2022-09-09T08:36:31;23.00;93.30
32640;DHT22;19049;52.524;11.468;2022-09-09T08:38:59;23.00;94.20
32640;DHT22;19049;52.524;11.468;2022-09-09T08:52:23;24.40;94.40
32640;DHT22;19049;52.524;11.468;2022-09-09T08:54:50;24.70;93.80
32640;DHT22;19049;52.524;11.468;2022-09-09T08:57:22;25.00;94.30
32640;DHT22;19049;52.524;11.468;2022-09-09T08:59:52;25.10;93.30
32640;DHT22;19049;52.524;11.468;2022-09-09T09:02:34;25.30;93.00
32640;DHT22;19049;52.524;11.468;2022-09-09T09:08:12;25.30;91.70
32640;DHT22;19049;52.524;11.468;2022-09-09T09:10:46;25.30;91.50
32640;DHT22;19049;52.524;11.468;2022-09-09T09:15:42;25.10;91.30
32640;DHT22;19049;52.524;11.468;2022-09-09T09:18:11;25.00;91.30
32640;DHT22;19049;52.524;11.468;2022-09-09T09:23:18;24.70;91.70
32640;DHT22;19049;52.524;11.468;2022-09-09T09:25:46;24.60;91.70
32640;DHT22;19049;52.524;11.468;2022-09-09T09:28:13;24.50;92.10
32640;DHT22;19049;52.524;11.468;2022-09-09T09:31:11;24.40;92.20
32640;DHT22;19049;52.524;11.468;2022-09-09T09:36:07;24.20;92.50
32640;DHT22;19049;52.524;11.468;2022-09-09T09:38:35;24.10;92.90
32640;DHT22;19049;52.524;11.468;2022-09-09T09:41:01;24.00;92.70
32640;DHT22;19049;52.524;11.468;2022-09-09T09:43:28;23.90;92.90
32640;DHT22;19049;52.524;11.468;2022-09-09T09:45:54;23.90;93.20
32640;DHT22;19049;52.524;11.468;2022-09-09T09:48:19;23.80;92.80
32640;DHT22;19049;52.524;11.468;2022-09-09T09:53:29;23.70;93.00
32640;DHT22;19049;52.524;11.468;2022-09-09T09:58:32;23.60;92.50
32640;DHT22;19049;52.524;11.468;2022-09-09T10:01:00;23.60;93.80
32640;DHT22;19049;52.524;11.468;2022-09-09T10:03:30;23.70;94.00
32640;DHT22;19049;52.524;11.468;2022-09-09T10:05:56;23.70;93.80
32640;DHT22;19049;52.524;11.468;2022-09-09T10:08:27;23.80;94.70
32640;DHT22;19049;52.524;11.468;2022-09-09T10:11:05;23.90;94.60
32640;DHT22;19049;52.524;11.468;2022-09-09T10:19:21;24.50;92.70
32640;DHT22;19049;52.524;11.468;2022-09-09T10:24:33;24.70;93.20
32640;DHT22;19049;52.524;11.468;2022-09-09T10:38:39;25.30;93.40
32640;DHT22;19049;52.524;11.468;2022-09-09T10:57:35;26.80;88.50
32640;DHT22;19049;52.524;11.468;2022-09-09T11:00:13;27.00;90.70
32640;DHT22;19049;52.524;11.468;2022-09-09T11:02:41;27.10;91.00
32640;DHT22;19049;52.524;11.468;2022-09-09T11:08:03;27.20;91.20
32640;DHT22;19049;52.524;11.468;2022-09-09T11:13:28;27.20;87.70
32640;DHT22;19049;52.524;11.468;2022-09-09T11:16:42;27.20;84.60
32640;DHT22;19049;52.524;11.468;2022-09-09T11:19:35;27.10;83.90
32640;DHT22;19049;52.524;11.468;2022-09-09T11:25:23;26.70;86.30
32640;DHT22;19049;52.524;11.468;2022-09-09T11:28:18;26.50;84.90
32640;DHT22;19049;52.524;11.468;2022-09-09T11:33:57;26.40;82.10
32640;DHT22;19049;52.524;11.468;2022-09-09T11:42:26;27.00;83.70
32640;DHT22;19049;52.524;11.468;2022-09-09T11:44:52;27.10;84.60
32640;DHT22;19049;52.524;11.468;2022-09-09T11:47:30;27.20;86.80
32640;DHT22;19049;52.524;11.468;2022-09-09T11:50:26;27.30;82.70
32640;DHT22;19049;52.524;11.468;2022-09-09T11:53:05;27.30;84.00
32640;DHT22;19049;52.524;11.468;2022-09-09T11:55:33;27.30;81.10
32640;DHT22;19049;52.524;11.468;2022-09-09T11:58:00;27.20;81.40
32640;DHT22;19049;52.524;11.468;2022-09-09T12:00:38;27.20;78.90
32640;DHT22;19049;52.524;11.468;2022-09-09T12:03:06;27.30;78.50
32640;DHT22;19049;52.524;11.468;2022-09-09T12:05:52;27.40;78.30
32640;DHT22;19049;52.524;11.468;2022-09-09T12:08:26;27.60;83.50
32640;DHT22;19049;52.524;11.468;2022-09-09T12:10:54;27.70;82.40
32640;DHT22;19049;52.524;11.468;2022-09-09T12:13:26;28.00;82.90
32640;DHT22;19049;52.524;11.468;2022-09-09T12:15:54;28.10;82.90
32640;DHT22;19049;52.524;11.468;2022-09-09T12:18:35;28.30;79.80
32640;DHT22;19049;52.524;11.468;2022-09-09T12:23:58;28.60;77.60
32640;DHT22;19049;52.524;11.468;2022-09-09T12:34:48;27.80;77.60
32640;DHT22;19049;52.524;11.468;2022-09-09T12:44:08;26.70;79.90
32640;DHT22;19049;52.524;11.468;2022-09-09T12:47:02;26.30;81.20
32640;DHT22;19049;52.524;11.468;2022-09-09T12:49:35;26.00;82.50
32640;DHT22;19049;52.524;11.468;2022-09-09T12:52:33;25.70;84.60
32640;DHT22;19049;52.524;11.468;2022-09-09T12:55:03;25.40;85.00
32640;DHT22;19049;52.524;11.468;2022-09-09T12:57:35;25.40;88.20
32640;DHT22;19049;52.524;11.468;2022-09-09T13:00:15;25.40;88.70
32640;DHT22;19049;52.524;11.468;2022-09-09T13:02:56;25.50;87.40
32640;DHT22;19049;52.524;11.468;2022-09-09T13:05:34;25.60;87.20
32640;DHT22;19049;52.524;11.468;2022-09-09T13:08:04;25.70;87.30
32640;DHT22;19049;52.524;11.468;2022-09-09T13:10:35;25.80;85.40
32640;DHT22;19049;52.524;11.468;2022-09-09T13:13:05;25.90;87.30
32640;DHT22;19049;52.524;11.468;2022-09-09T13:15:38;26.10;86.10
32640;DHT22;19049;52.524;11.468;2022-09-09T13:18:07;26.20;83.50
32640;DHT22;19049;52.524;11.468;2022-09-09T13:20:36;26.20;81.70
32640;DHT22;19049;52.524;11.468;2022-09-09T13:23:02;26.30;83.10
32640;DHT22;19049;52.524;11.468;2022-09-09T13:25:28;26.30;82.00
32640;DHT22;19049;52.524;11.468;2022-09-09T13:28:02;26.40;83.10
32640;DHT22;19049;52.524;11.468;2022-09-09T13:30:32;26.70;85.40
32640;DHT22;19049;52.524;11.468;2022-09-09T13:35:35;27.60;75.70
32640;DHT22;19049;52.524;11.468;2022-09-09T13:38:12;27.80;74.40
32640;DHT22;19049;52.524;11.468;2022-09-09T13:40:39;27.80;73.00
32640;DHT22;19049;52.524;11.468;2022-09-09T13:43:04;27.90;77.20
32640;DHT22;19049;52.524;11.468;2022-09-09T13:45:30;27.90;75.60
32640;DHT22;19049;52.524;11.468;2022-09-09T13:47:56;28.10;75.80
32640;DHT22;19049;52.524;11.468;2022-09-09T13:50:29;28.40;73.80
32640;DHT22;19049;52.524;11.468;2022-09-09T13:52:58;28.70;73.30
32640;DHT22;19049;52.524;11.468;2022-09-09T13:55:28;29.10;71.90
32640;DHT22;19049;52.524;11.468;2022-09-09T13:57:57;29.60;70.50
32640;DHT22;19049;52.524;11.468;2022-09-09T14:00:26;29.90;64.50
32640;DHT22;19049;52.524;11.468;2022-09-09T14:02:53;30.20;67.30
32640;DHT22;19049;52.524;11.468;2022-09-09T14:05:20;30.40;69.70
32640;DHT22;19049;52.524;11.468;2022-09-09T14:07:47;30.70;66.30
32640;DHT22;19049;52.524;11.468;2022-09-09T14:10:13;31.00;75.30
32640;DHT22;19049;52.524;11.468;2022-09-09T14:12:39;31.20;66.00
32640;DHT22;19049;52.524;11.468;2022-09-09T14:15:06;31.40;61.50
32640;DHT22;19049;52.524;11.468;2022-09-09T14:17:32;31.60;60.10
32640;DHT22;19049;52.524;11.468;2022-09-09T14:19:58;31.60;59.70
32640;DHT22;19049;52.524;11.468;2022-09-09T14:22:25;31.40;57.80
32640;DHT22;19049;52.524;11.468;2022-09-09T14:24:51;31.10;53.20
32640;DHT22;19049;52.524;11.468;2022-09-09T14:27:16;30.70;58.30
32640;DHT22;19049;52.524;11.468;2022-09-09T14:29:44;30.20;58.20
32640;DHT22;19049;52.524;11.468;2022-09-09T14:32:10;29.70;60.20
32640;DHT22;19049;52.524;11.468;2022-09-09T14:34:36;29.10;61.40
32640;DHT22;19049;52.524;11.468;2022-09-09T14:37:02;28.80;63.70
32640;DHT22;19049;52.524;11.468;2022-09-09T14:39:30;28.60;67.60
32640;DHT22;19049;52.524;11.468;2022-09-09T14:41:56;28.60;69.20
32640;DHT22;19049;52.524;11.468;2022-09-09T14:44:21;28.90;70.50
32640;DHT22;19049;52.524;11.468;2022-09-09T14:46:49;29.30;71.90
32640;DHT22;19049;52.524;11.468;2022-09-09T14:49:15;29.70;71.00
32640;DHT22;19049;52.524;11.468;2022-09-09T14:51:41;30.10;72.00
32640;DHT22;19049;52.524;11.468;2022-09-09T14:54:07;30.40;71.10
32640;DHT22;19049;52.524;11.468;2022-09-09T14:56:33;30.70;72.20
32640;DHT22;19049;52.524;11.468;2022-09-09T14:59:03;31.00;71.40
32640;DHT22;19049;52.524;11.468;2022-09-09T15:01:30;31.40;69.40
32640;DHT22;19049;52.524;11.468;2022-09-09T15:03:58;31.50;69.10
32640;DHT22;19049;52.524;11.468;2022-09-09T15:06:29;31.70;67.50
32640;DHT22;19049;52.524;11.468;2022-09-09T15:08:56;31.70;66.50
32640;DHT22;19049;52.524;11.468;2022-09-09T15:11:23;31.70;66.00
32640;DHT22;19049;52.524;11.468;2022-09-09T15:13:51;31.60;65.30
32640;DHT22;19049;52.524;11.468;2022-09-09T15:16:24;31.30;65.50
32640;DHT22;19049;52.524;11.468;2022-09-09T15:18:54;31.00;65.20
32640;DHT22;19049;52.524;11.468;2022-09-09T15:21:21;30.60;63.80
32640;DHT22;19049;52.524;11.468;2022-09-09T15:23:48;30.10;64.60
32640;DHT22;19049;52.524;11.468;2022-09-09T15:26:14;29.60;65.60
32640;DHT22;19049;52.524;11.468;2022-09-09T15:28:41;29.00;66.40
32640;DHT22;19049;52.524;11.468;2022-09-09T15:31:14;28.50;66.90
32640;DHT22;19049;52.524;11.468;2022-09-09T15:33:40;27.90;66.70
32640;DHT22;19049;52.524;11.468;2022-09-09T15:38:59;27.00;65.10
32640;DHT22;19049;52.524;11.468;2022-09-09T15:41:25;26.60;67.00
32640;DHT22;19049;52.524;11.468;2022-09-09T15:43:53;26.20;68.50
32640;DHT22;19049;52.524;11.468;2022-09-09T15:46:33;26.00;70.20
32640;DHT22;19049;52.524;11.468;2022-09-09T15:49:18;25.70;68.20
32640;DHT22;19049;52.524;11.468;2022-09-09T15:51:47;25.60;71.20
32640;DHT22;19049;52.524;11.468;2022-09-09T15:54:17;25.50;74.40
32640;DHT22;19049;52.524;11.468;2022-09-09T15:56:44;25.40;75.20
32640;DHT22;19049;52.524;11.468;2022-09-09T15:59:13;25.50;77.20
32640;DHT22;19049;52.524;11.468;2022-09-09T16:01:40;25.60;78.00
32640;DHT22;19049;52.524;11.468;2022-09-09T16:04:05;25.80;79.40
32640;DHT22;19049;52.524;11.468;2022-09-09T16:06:32;26.20;80.60
32640;DHT22;19049;52.524;11.468;2022-09-09T16:08:59;26.50;80.00
32640;DHT22;19049;52.524;11.468;2022-09-09T16:11:31;26.80;78.20
32640;DHT22;19049;52.524;11.468;2022-09-09T16:13:58;26.90;76.30
32640;DHT22;19049;52.524;11.468;2022-09-09T16:16:27;27.00;76.40
32640;DHT22;19049;52.524;11.468;2022-09-09T16:18:58;26.90;75.50
32640;DHT22;19049;52.524;11.468;2022-09-09T16:21:26;26.80;75.40
32640;DHT22;19049;52.524;11.468;2022-09-09T16:23:52;26.50;75.50
32640;DHT22;19049;52.524;11.468;2022-09-09T16:26:22;26.30;75.80
32640;DHT22;19049;52.524;11.468;2022-09-09T16:28:48;26.10;76.40
32640;DHT22;19049;52.524;11.468;2022-09-09T16:31:21;25.90;76.80
32640;DHT22;19049;52.524;11.468;2022-09-09T16:33:47;25.70;77.00
32640;DHT22;19049;52.524;11.468;2022-09-09T16:36:15;25.40;77.50
32640;DHT22;19049;52.524;11.468;2022-09-09T16:38:42;25.20;77.90
32640;DHT22;19049;52.524;11.468;2022-09-09T16:41:09;25.00;78.50
32640;DHT22;19049;52.524;11.468;2022-09-09T16:43:38;24.80;78.70
32640;DHT22;19049;52.524;11.468;2022-09-09T16:46:12;24.70;79.10
32640;DHT22;19049;52.524;11.468;2022-09-09T16:48:41;24.40;79.60
32640;DHT22;19049;52.524;11.468;2022-09-09T16:51:11;24.30;80.70
32640;DHT22;19049;52.524;11.468;2022-09-09T16:53:40;24.10;81.20
32640;DHT22;19049;52.524;11.468;2022-09-09T16:56:09;23.90;81.90
32640;DHT22;19049;52.524;11.468;2022-09-09T16:58:35;23.80;82.40
32640;DHT22;19049;52.524;11.468;2022-09-09T17:01:01;23.60;83.00
32640;DHT22;19049;52.524;11.468;2022-09-09T17:03:28;23.40;83.60
32640;DHT22;19049;52.524;11.468;2022-09-09T17:05:54;23.30;84.20
32640;DHT22;19049;52.524;11.468;2022-09-09T17:08:20;23.10;84.80
32640;DHT22;19049;52.524;11.468;2022-09-09T17:10:45;23.00;85.10
32640;DHT22;19049;52.524;11.468;2022-09-09T17:13:12;22.90;85.40
32640;DHT22;19049;52.524;11.468;2022-09-09T17:15:42;22.70;85.60
32640;DHT22;19049;52.524;11.468;2022-09-09T17:18:11;22.50;85.60
32640;DHT22;19049;52.524;11.468;2022-09-09T17:20:38;22.40;86.20
32640;DHT22;19049;52.524;11.468;2022-09-09T17:23:05;22.20;87.10
32640;DHT22;19049;52.524;11.468;2022-09-09T17:25:33;22.10;88.40
32640;DHT22;19049;52.524;11.468;2022-09-09T17:28:02;21.90;89.40
32640;DHT22;19049;52.524;11.468;2022-09-09T17:30:39;21.80;90.20
32640;DHT22;19049;52.524;11.468;2022-09-09T17:33:04;21.70;90.00
32640;DHT22;19049;52.524;11.468;2022-09-09T17:35:32;21.50;90.20
32640;DHT22;19049;52.524;11.468;2022-09-09T17:37:58;21.40;90.40
32640;DHT22;19049;52.524;11.468;2022-09-09T17:40:26;21.20;90.50
32640;DHT22;19049;52.524;11.468;2022-09-09T17:42:55;21.10;90.80
32640;DHT22;19049;52.524;11.468;2022-09-09T17:45:20;20.90;90.90
32640;DHT22;19049;52.524;11.468;2022-09-09T17:50:17;20.60;91.00
32640;DHT22;19049;52.524;11.468;2022-09-09T17:55:16;20.40;91.40
32640;DHT22;19049;52.524;11.468;2022-09-09T17:57:42;20.20;91.90
32640;DHT22;19049;52.524;11.468;2022-09-09T18:00:08;20.10;92.10
32640;DHT22;19049;52.524;11.468;2022-09-09T18:02:34;20.00;92.30
32640;DHT22;19049;52.524;11.468;2022-09-09T18:05:00;19.90;92.50
32640;DHT22;19049;52.524;11.468;2022-09-09T18:07:26;19.80;92.60
32640;DHT22;19049;52.524;11.468;2022-09-09T18:09:52;19.80;92.80
32640;DHT22;19049;52.524;11.468;2022-09-09T18:12:17;19.60;92.80
32640;DHT22;19049;52.524;11.468;2022-09-09T18:14:43;19.50;92.90
32640;DHT22;19049;52.524;11.468;2022-09-09T18:17:09;19.40;92.90
32640;DHT22;19049;52.524;11.468;2022-09-09T18:19:35;19.30;93.10
32640;DHT22;19049;52.524;11.468;2022-09-09T18:22:04;19.30;93.30
32640;DHT22;19049;52.524;11.468;2022-09-09T18:24:30;19.10;93.40
32640;DHT22;19049;52.524;11.468;2022-09-09T18:26:56;19.10;93.60
32640;DHT22;19049;52.524;11.468;2022-09-09T18:29:22;19.00;93.70
32640;DHT22;19049;52.524;11.468;2022-09-09T18:31:50;18.90;93.80
32640;DHT22;19049;52.524;11.468;2022-09-09T18:34:18;18.80;93.90
32640;DHT22;19049;52.524;11.468;2022-09-09T18:36:46;18.80;94.10
32640;DHT22;19049;52.524;11.468;2022-09-09T18:39:15;18.80;94.20
32640;DHT22;19049;52.524;11.468;2022-09-09T18:41:45;18.60;94.10
32640;DHT22;19049;52.524;11.468;2022-09-09T18:44:16;18.70;98.70